sensor_id;sensor_type;location;lat;lon;timestamp;P1;durP1;ratioP1;P2;durP2;ratioP2
15716;SDS011;7960;50.908;4.204;2022-12-05T00:00:46;57.63;;;27.00;;
15716;SDS011;7960;50.908;4.204;2022-12-05T00:03:13;57.10;;;27.63;;
15716;SDS011;7960;50.908;4.204;2022-12-05T00:05:41;60.47;;;28.00;;
15716;SDS011;7960;50.908;4.204;2022-12-05T00:08:08;50.53;;;24.87;;
15716;SDS011;7960;50.908;4.204;2022-12-05T00:10:35;60.13;;;26.57;;
15716;SDS011;7960;50.908;4.204;2022-12-05T00:13:02;61.17;;;26.87;;
15716;SDS011;7960;50.908;4.204;2022-12-05T00:15:29;58.50;;;26.57;;
15716;SDS011;7960;50.908;4.204;2022-12-05T00:17:56;58.77;;;25.90;;
15716;SDS011;7960;50.908;4.204;2022-12-05T00:20:23;61.83;;;27.53;;
15716;SDS011;7960;50.908;4.204;2022-12-05T00:22:51;63.20;;;27.40;;
15716;SDS011;7960;50.908;4.204;2022-12-05T00:25:17;58.57;;;27.13;;
15716;SDS011;7960;50.908;4.204;2022-12-05T00:27:44;55.63;;;25.70;;
15716;SDS011;7960;50.908;4.204;2022-12-05T00:30:11;57.00;;;26.80;;
15716;SDS011;7960;50.908;4.204;2022-12-05T00:32:38;54.60;;;26.63;;
15716;SDS011;7960;50.908;4.204;2022-12-05T00:35:05;57.07;;;26.50;;
15716;SDS011;7960;50.908;4.204;2022-12-05T00:37:32;61.63;;;27.30;;
15716;SDS011;7960;50.908;4.204;2022-12-05T00:40:02;54.87;;;24.07;;
15716;SDS011;7960;50.908;4.204;2022-12-05T00:42:29;56.77;;;24.73;;
15716;SDS011;7960;50.908;4.204;2022-12-05T00:44:56;63.67;;;25.23;;
15716;SDS011;7960;50.908;4.204;2022-12-05T00:47:23;57.93;;;25.67;;
15716;SDS011;7960;50.908;4.204;2022-12-05T00:49:50;57.23;;;25.50;;
15716;SDS011;7960;50.908;4.204;2022-12-05T00:52:17;49.17;;;24.77;;
15716;SDS011;7960;50.908;4.204;2022-12-05T00:54:43;58.37;;;25.50;;
15716;SDS011;7960;50.908;4.204;2022-12-05T00:57:12;58.80;;;26.03;;
15716;SDS011;7960;50.908;4.204;2022-12-05T00:59:39;57.97;;;25.70;;
15716;SDS011;7960;50.908;4.204;2022-12-05T01:02:06;55.10;;;26.33;;
15716;SDS011;7960;50.908;4.204;2022-12-05T01:04:32;48.43;;;23.90;;
15716;SDS011;7960;50.908;4.204;2022-12-05T01:06:59;52.43;;;25.47;;
15716;SDS011;7960;50.908;4.204;2022-12-05T01:09:26;57.27;;;25.33;;
15716;SDS011;7960;50.908;4.204;2022-12-05T01:11:53;60.60;;;25.57;;
15716;SDS011;7960;50.908;4.204;2022-12-05T01:14:22;61.40;;;26.10;;
15716;SDS011;7960;50.908;4.204;2022-12-05T01:16:52;58.40;;;26.07;;
15716;SDS011;7960;50.908;4.204;2022-12-05T01:19:21;60.10;;;25.67;;
15716;SDS011;7960;50.908;4.204;2022-12-05T01:21:49;54.53;;;24.97;;
15716;SDS011;7960;50.908;4.204;2022-12-05T01:24:17;57.03;;;25.77;;
15716;SDS011;7960;50.908;4.204;2022-12-05T01:26:46;57.13;;;26.00;;
15716;SDS011;7960;50.908;4.204;2022-12-05T01:29:14;61.60;;;24.10;;
15716;SDS011;7960;50.908;4.204;2022-12-05T01:31:43;54.57;;;24.80;;
15716;SDS011;7960;50.908;4.204;2022-12-05T01:34:11;51.20;;;25.07;;
15716;SDS011;7960;50.908;4.204;2022-12-05T01:36:39;53.00;;;24.83;;
15716;SDS011;7960;50.908;4.204;2022-12-05T01:39:07;60.80;;;25.87;;
15716;SDS011;7960;50.908;4.204;2022-12-05T01:41:36;58.17;;;25.73;;
15716;SDS011;7960;50.908;4.204;2022-12-05T01:44:04;54.43;;;24.80;;
15716;SDS011;7960;50.908;4.204;2022-12-05T01:46:34;61.43;;;25.43;;
15716;SDS011;7960;50.908;4.204;2022-12-05T01:49:04;59.60;;;25.40;;
15716;SDS011;7960;50.908;4.204;2022-12-05T01:51:36;51.83;;;25.50;;
15716;SDS011;7960;50.908;4.204;2022-12-05T01:54:05;55.77;;;26.47;;
15716;SDS011;7960;50.908;4.204;2022-12-05T01:56:33;58.67;;;25.63;;
15716;SDS011;7960;50.908;4.204;2022-12-05T01:59:02;53.63;;;25.00;;
15716;SDS011;7960;50.908;4.204;2022-12-05T02:01:31;54.10;;;25.23;;
15716;SDS011;7960;50.908;4.204;2022-12-05T02:03:58;58.50;;;25.60;;
15716;SDS011;7960;50.908;4.204;2022-12-05T02:06:26;64.40;;;25.23;;
15716;SDS011;7960;50.908;4.204;2022-12-05T02:08:54;54.80;;;25.43;;
15716;SDS011;7960;50.908;4.204;2022-12-05T02:11:21;58.17;;;25.63;;
15716;SDS011;7960;50.908;4.204;2022-12-05T02:13:54;58.77;;;26.30;;
15716;SDS011;7960;50.908;4.204;2022-12-05T02:16:38;54.23;;;24.73;;
15716;SDS011;7960;50.908;4.204;2022-12-05T02:19:18;49.90;;;24.77;;
15716;SDS011;7960;50.908;4.204;2022-12-05T02:22:17;48.63;;;24.33;;
15716;SDS011;7960;50.908;4.204;2022-12-05T02:25:05;54.03;;;25.40;;
15716;SDS011;7960;50.908;4.204;2022-12-05T02:30:55;50.33;;;24.47;;
15716;SDS011;7960;50.908;4.204;2022-12-05T02:33:26;52.50;;;24.67;;
15716;SDS011;7960;50.908;4.204;2022-12-05T02:36:02;48.43;;;25.40;;
15716;SDS011;7960;50.908;4.204;2022-12-05T02:38:35;48.47;;;23.27;;
15716;SDS011;7960;50.908;4.204;2022-12-05T02:41:10;49.00;;;23.10;;
15716;SDS011;7960;50.908;4.204;2022-12-05T02:43:42;60.00;;;25.07;;
15716;SDS011;7960;50.908;4.204;2022-12-05T02:46:15;51.80;;;22.93;;
15716;SDS011;7960;50.908;4.204;2022-12-05T02:48:44;53.57;;;23.93;;
15716;SDS011;7960;50.908;4.204;2022-12-05T02:51:13;53.63;;;25.43;;
15716;SDS011;7960;50.908;4.204;2022-12-05T02:53:44;48.67;;;23.10;;
15716;SDS011;7960;50.908;4.204;2022-12-05T02:56:13;51.93;;;23.47;;
15716;SDS011;7960;50.908;4.204;2022-12-05T02:58:42;48.07;;;23.30;;
15716;SDS011;7960;50.908;4.204;2022-12-05T03:01:14;52.83;;;23.60;;
15716;SDS011;7960;50.908;4.204;2022-12-05T03:03:42;54.07;;;23.80;;
15716;SDS011;7960;50.908;4.204;2022-12-05T03:06:10;48.77;;;23.57;;
15716;SDS011;7960;50.908;4.204;2022-12-05T03:08:41;50.97;;;23.60;;
15716;SDS011;7960;50.908;4.204;2022-12-05T03:11:12;53.60;;;24.33;;
15716;SDS011;7960;50.908;4.204;2022-12-05T03:13:40;49.90;;;24.07;;
15716;SDS011;7960;50.908;4.204;2022-12-05T03:16:11;45.87;;;22.80;;
15716;SDS011;7960;50.908;4.204;2022-12-05T03:18:44;50.77;;;22.03;;
15716;SDS011;7960;50.908;4.204;2022-12-05T03:21:18;46.27;;;22.47;;
15716;SDS011;7960;50.908;4.204;2022-12-05T03:23:51;48.30;;;23.03;;
15716;SDS011;7960;50.908;4.204;2022-12-05T03:26:25;46.53;;;22.17;;
15716;SDS011;7960;50.908;4.204;2022-12-05T03:29:06;47.53;;;23.63;;
15716;SDS011;7960;50.908;4.204;2022-12-05T03:31:48;52.90;;;23.10;;
15716;SDS011;7960;50.908;4.204;2022-12-05T03:34:24;51.90;;;24.27;;
15716;SDS011;7960;50.908;4.204;2022-12-05T03:37:01;46.57;;;22.37;;
15716;SDS011;7960;50.908;4.204;2022-12-05T03:39:36;46.30;;;21.20;;
15716;SDS011;7960;50.908;4.204;2022-12-05T03:42:08;49.47;;;22.73;;
15716;SDS011;7960;50.908;4.204;2022-12-05T03:44:41;42.97;;;21.07;;
15716;SDS011;7960;50.908;4.204;2022-12-05T03:47:16;49.97;;;22.63;;
15716;SDS011;7960;50.908;4.204;2022-12-05T03:49:48;46.30;;;22.07;;
15716;SDS011;7960;50.908;4.204;2022-12-05T03:52:19;45.80;;;22.57;;
15716;SDS011;7960;50.908;4.204;2022-12-05T03:54:50;47.57;;;21.53;;
15716;SDS011;7960;50.908;4.204;2022-12-05T03:57:21;48.00;;;22.23;;
15716;SDS011;7960;50.908;4.204;2022-12-05T03:59:51;47.93;;;22.33;;
15716;SDS011;7960;50.908;4.204;2022-12-05T04:02:24;44.30;;;22.77;;
15716;SDS011;7960;50.908;4.204;2022-12-05T04:04:58;49.40;;;22.13;;
15716;SDS011;7960;50.908;4.204;2022-12-05T04:07:29;53.13;;;23.63;;
15716;SDS011;7960;50.908;4.204;2022-12-05T04:10:01;50.60;;;23.83;;
15716;SDS011;7960;50.908;4.204;2022-12-05T04:12:31;47.17;;;21.57;;
15716;SDS011;7960;50.908;4.204;2022-12-05T04:15:02;50.70;;;22.17;;
15716;SDS011;7960;50.908;4.204;2022-12-05T04:17:35;43.30;;;22.13;;
15716;SDS011;7960;50.908;4.204;2022-12-05T04:20:09;46.20;;;21.03;;
15716;SDS011;7960;50.908;4.204;2022-12-05T04:22:57;42.90;;;21.37;;
15716;SDS011;7960;50.908;4.204;2022-12-05T04:25:25;47.00;;;22.47;;
15716;SDS011;7960;50.908;4.204;2022-12-05T04:28:06;52.67;;;22.47;;
15716;SDS011;7960;50.908;4.204;2022-12-05T04:30:42;40.80;;;20.90;;
15716;SDS011;7960;50.908;4.204;2022-12-05T04:33:15;50.23;;;22.93;;
15716;SDS011;7960;50.908;4.204;2022-12-05T04:35:48;42.17;;;20.80;;
15716;SDS011;7960;50.908;4.204;2022-12-05T04:38:19;46.17;;;21.37;;
15716;SDS011;7960;50.908;4.204;2022-12-05T04:40:52;47.23;;;22.13;;
15716;SDS011;7960;50.908;4.204;2022-12-05T04:43:22;44.33;;;22.70;;
15716;SDS011;7960;50.908;4.204;2022-12-05T04:45:51;44.17;;;22.73;;
15716;SDS011;7960;50.908;4.204;2022-12-05T04:48:22;48.83;;;21.93;;
15716;SDS011;7960;50.908;4.204;2022-12-05T04:50:52;45.67;;;22.73;;
15716;SDS011;7960;50.908;4.204;2022-12-05T04:53:21;43.23;;;21.43;;
15716;SDS011;7960;50.908;4.204;2022-12-05T04:55:51;43.50;;;22.27;;
15716;SDS011;7960;50.908;4.204;2022-12-05T04:58:21;45.20;;;22.03;;
15716;SDS011;7960;50.908;4.204;2022-12-05T05:00:54;48.70;;;21.97;;
15716;SDS011;7960;50.908;4.204;2022-12-05T05:03:26;45.37;;;21.90;;
15716;SDS011;7960;50.908;4.204;2022-12-05T05:05:56;43.43;;;22.33;;
15716;SDS011;7960;50.908;4.204;2022-12-05T05:08:24;47.37;;;22.27;;
15716;SDS011;7960;50.908;4.204;2022-12-05T05:10:56;45.67;;;22.47;;
15716;SDS011;7960;50.908;4.204;2022-12-05T05:13:30;45.67;;;21.43;;
15716;SDS011;7960;50.908;4.204;2022-12-05T05:15:57;46.03;;;21.80;;
15716;SDS011;7960;50.908;4.204;2022-12-05T05:18:25;43.97;;;22.30;;
15716;SDS011;7960;50.908;4.204;2022-12-05T05:20:52;45.60;;;21.73;;
15716;SDS011;7960;50.908;4.204;2022-12-05T05:23:19;47.77;;;22.23;;
15716;SDS011;7960;50.908;4.204;2022-12-05T05:25:50;48.70;;;22.93;;
15716;SDS011;7960;50.908;4.204;2022-12-05T05:28:18;46.13;;;22.40;;
15716;SDS011;7960;50.908;4.204;2022-12-05T05:30:44;44.27;;;21.77;;
15716;SDS011;7960;50.908;4.204;2022-12-05T05:33:11;44.20;;;21.40;;
15716;SDS011;7960;50.908;4.204;2022-12-05T05:35:39;50.90;;;22.97;;
15716;SDS011;7960;50.908;4.204;2022-12-05T05:38:06;48.03;;;22.23;;
15716;SDS011;7960;50.908;4.204;2022-12-05T05:40:33;53.87;;;23.43;;
15716;SDS011;7960;50.908;4.204;2022-12-05T05:43:01;47.10;;;23.63;;
15716;SDS011;7960;50.908;4.204;2022-12-05T05:45:28;45.27;;;23.10;;
15716;SDS011;7960;50.908;4.204;2022-12-05T05:47:55;48.10;;;23.13;;
15716;SDS011;7960;50.908;4.204;2022-12-05T05:50:22;51.20;;;23.53;;
15716;SDS011;7960;50.908;4.204;2022-12-05T05:52:50;47.47;;;21.83;;
15716;SDS011;7960;50.908;4.204;2022-12-05T05:55:17;54.53;;;24.37;;
15716;SDS011;7960;50.908;4.204;2022-12-05T05:57:44;57.90;;;24.73;;
15716;SDS011;7960;50.908;4.204;2022-12-05T06:00:11;48.13;;;22.80;;
15716;SDS011;7960;50.908;4.204;2022-12-05T06:02:39;46.93;;;23.13;;
15716;SDS011;7960;50.908;4.204;2022-12-05T06:05:06;57.10;;;25.13;;
15716;SDS011;7960;50.908;4.204;2022-12-05T06:07:33;49.10;;;22.90;;
15716;SDS011;7960;50.908;4.204;2022-12-05T06:10:02;51.20;;;23.87;;
15716;SDS011;7960;50.908;4.204;2022-12-05T06:12:29;52.73;;;23.53;;
15716;SDS011;7960;50.908;4.204;2022-12-05T06:14:56;48.37;;;23.10;;
15716;SDS011;7960;50.908;4.204;2022-12-05T06:17:23;49.53;;;23.23;;
15716;SDS011;7960;50.908;4.204;2022-12-05T06:19:50;52.20;;;24.47;;
15716;SDS011;7960;50.908;4.204;2022-12-05T06:22:17;52.07;;;23.90;;
15716;SDS011;7960;50.908;4.204;2022-12-05T06:24:44;51.63;;;24.27;;
15716;SDS011;7960;50.908;4.204;2022-12-05T06:27:12;54.47;;;23.97;;
15716;SDS011;7960;50.908;4.204;2022-12-05T06:29:39;46.90;;;22.97;;
15716;SDS011;7960;50.908;4.204;2022-12-05T06:32:06;52.60;;;23.07;;
15716;SDS011;7960;50.908;4.204;2022-12-05T06:34:33;48.87;;;24.43;;
15716;SDS011;7960;50.908;4.204;2022-12-05T06:37:00;55.43;;;24.80;;
15716;SDS011;7960;50.908;4.204;2022-12-05T06:39:30;55.43;;;25.57;;
15716;SDS011;7960;50.908;4.204;2022-12-05T06:41:57;53.90;;;24.40;;
15716;SDS011;7960;50.908;4.204;2022-12-05T06:44:25;53.10;;;25.60;;
15716;SDS011;7960;50.908;4.204;2022-12-05T06:46:53;50.73;;;24.90;;
15716;SDS011;7960;50.908;4.204;2022-12-05T06:49:20;53.40;;;23.10;;
15716;SDS011;7960;50.908;4.204;2022-12-05T06:51:47;50.87;;;24.13;;
15716;SDS011;7960;50.908;4.204;2022-12-05T06:54:14;51.67;;;24.13;;
15716;SDS011;7960;50.908;4.204;2022-12-05T06:56:40;54.50;;;25.60;;
15716;SDS011;7960;50.908;4.204;2022-12-05T06:59:07;53.17;;;24.07;;
15716;SDS011;7960;50.908;4.204;2022-12-05T07:01:35;52.03;;;25.27;;
15716;SDS011;7960;50.908;4.204;2022-12-05T07:04:10;55.23;;;27.10;;
15716;SDS011;7960;50.908;4.204;2022-12-05T07:06:39;58.53;;;26.00;;
15716;SDS011;7960;50.908;4.204;2022-12-05T07:09:07;61.67;;;26.83;;
15716;SDS011;7960;50.908;4.204;2022-12-05T07:11:35;53.73;;;26.30;;
15716;SDS011;7960;50.908;4.204;2022-12-05T07:14:02;54.00;;;25.90;;
15716;SDS011;7960;50.908;4.204;2022-12-05T07:16:29;51.13;;;25.90;;
15716;SDS011;7960;50.908;4.204;2022-12-05T07:18:58;52.00;;;24.90;;
15716;SDS011;7960;50.908;4.204;2022-12-05T07:21:25;51.00;;;24.33;;
15716;SDS011;7960;50.908;4.204;2022-12-05T07:23:51;51.13;;;25.30;;
15716;SDS011;7960;50.908;4.204;2022-12-05T07:26:20;56.97;;;23.90;;
15716;SDS011;7960;50.908;4.204;2022-12-05T07:28:48;62.80;;;27.17;;
15716;SDS011;7960;50.908;4.204;2022-12-05T07:31:16;51.13;;;25.07;;
15716;SDS011;7960;50.908;4.204;2022-12-05T07:33:45;50.33;;;24.67;;
15716;SDS011;7960;50.908;4.204;2022-12-05T07:36:15;52.40;;;24.83;;
15716;SDS011;7960;50.908;4.204;2022-12-05T07:38:43;59.83;;;27.80;;
15716;SDS011;7960;50.908;4.204;2022-12-05T07:41:12;59.30;;;26.90;;
15716;SDS011;7960;50.908;4.204;2022-12-05T07:43:42;57.93;;;26.13;;
15716;SDS011;7960;50.908;4.204;2022-12-05T07:46:09;59.57;;;27.03;;
15716;SDS011;7960;50.908;4.204;2022-12-05T07:48:36;61.30;;;25.63;;
15716;SDS011;7960;50.908;4.204;2022-12-05T07:51:04;59.67;;;26.67;;
15716;SDS011;7960;50.908;4.204;2022-12-05T07:53:33;58.43;;;26.70;;
15716;SDS011;7960;50.908;4.204;2022-12-05T07:56:02;58.07;;;27.33;;
15716;SDS011;7960;50.908;4.204;2022-12-05T07:58:30;64.50;;;28.10;;
15716;SDS011;7960;50.908;4.204;2022-12-05T08:01:04;60.80;;;26.23;;
15716;SDS011;7960;50.908;4.204;2022-12-05T08:03:32;57.33;;;26.47;;
15716;SDS011;7960;50.908;4.204;2022-12-05T08:06:00;56.07;;;27.57;;
15716;SDS011;7960;50.908;4.204;2022-12-05T08:08:27;55.67;;;26.63;;
15716;SDS011;7960;50.908;4.204;2022-12-05T08:10:55;55.23;;;26.77;;
15716;SDS011;7960;50.908;4.204;2022-12-05T08:13:27;53.87;;;25.80;;
15716;SDS011;7960;50.908;4.204;2022-12-05T08:15:54;58.63;;;25.97;;
15716;SDS011;7960;50.908;4.204;2022-12-05T08:18:25;56.93;;;26.00;;
15716;SDS011;7960;50.908;4.204;2022-12-05T08:20:52;57.23;;;24.53;;
15716;SDS011;7960;50.908;4.204;2022-12-05T08:23:20;53.47;;;25.23;;
15716;SDS011;7960;50.908;4.204;2022-12-05T08:25:47;52.40;;;24.77;;
15716;SDS011;7960;50.908;4.204;2022-12-05T08:28:17;54.63;;;23.37;;
15716;SDS011;7960;50.908;4.204;2022-12-05T08:30:44;52.93;;;25.97;;
15716;SDS011;7960;50.908;4.204;2022-12-05T08:33:10;54.33;;;24.57;;
15716;SDS011;7960;50.908;4.204;2022-12-05T08:35:37;62.93;;;26.20;;
15716;SDS011;7960;50.908;4.204;2022-12-05T08:38:04;47.07;;;24.17;;
15716;SDS011;7960;50.908;4.204;2022-12-05T08:40:31;50.47;;;23.57;;
15716;SDS011;7960;50.908;4.204;2022-12-05T08:42:58;55.57;;;25.33;;
15716;SDS011;7960;50.908;4.204;2022-12-05T08:45:28;47.97;;;23.70;;
15716;SDS011;7960;50.908;4.204;2022-12-05T08:47:55;53.20;;;25.17;;
15716;SDS011;7960;50.908;4.204;2022-12-05T08:50:22;52.93;;;24.37;;
15716;SDS011;7960;50.908;4.204;2022-12-05T08:52:49;49.27;;;24.00;;
15716;SDS011;7960;50.908;4.204;2022-12-05T08:55:16;52.67;;;24.53;;
15716;SDS011;7960;50.908;4.204;2022-12-05T08:57:42;50.73;;;25.37;;
15716;SDS011;7960;50.908;4.204;2022-12-05T09:00:10;48.10;;;24.77;;
15716;SDS011;7960;50.908;4.204;2022-12-05T09:02:38;47.00;;;23.73;;
15716;SDS011;7960;50.908;4.204;2022-12-05T09:05:06;51.63;;;25.10;;
15716;SDS011;7960;50.908;4.204;2022-12-05T09:07:34;46.33;;;23.43;;
15716;SDS011;7960;50.908;4.204;2022-12-05T09:10:03;47.93;;;23.83;;
15716;SDS011;7960;50.908;4.204;2022-12-05T09:12:30;45.37;;;22.50;;
15716;SDS011;7960;50.908;4.204;2022-12-05T09:14:58;54.00;;;24.30;;
15716;SDS011;7960;50.908;4.204;2022-12-05T09:17:25;45.83;;;23.73;;
15716;SDS011;7960;50.908;4.204;2022-12-05T09:19:54;45.93;;;23.00;;
15716;SDS011;7960;50.908;4.204;2022-12-05T09:22:21;49.30;;;23.33;;
15716;SDS011;7960;50.908;4.204;2022-12-05T09:24:50;45.60;;;23.03;;
15716;SDS011;7960;50.908;4.204;2022-12-05T09:27:17;42.20;;;22.93;;
15716;SDS011;7960;50.908;4.204;2022-12-05T09:29:46;41.67;;;21.40;;
15716;SDS011;7960;50.908;4.204;2022-12-05T09:32:13;38.90;;;21.03;;
15716;SDS011;7960;50.908;4.204;2022-12-05T09:34:39;36.90;;;20.80;;
15716;SDS011;7960;50.908;4.204;2022-12-05T09:37:08;43.83;;;20.90;;
15716;SDS011;7960;50.908;4.204;2022-12-05T09:39:35;38.93;;;19.43;;
15716;SDS011;7960;50.908;4.204;2022-12-05T09:42:13;41.27;;;21.37;;
15716;SDS011;7960;50.908;4.204;2022-12-05T09:44:55;36.30;;;19.90;;
15716;SDS011;7960;50.908;4.204;2022-12-05T09:47:32;39.97;;;19.93;;
15716;SDS011;7960;50.908;4.204;2022-12-05T09:50:10;34.17;;;18.70;;
15716;SDS011;7960;50.908;4.204;2022-12-05T09:52:45;33.13;;;18.93;;
15716;SDS011;7960;50.908;4.204;2022-12-05T09:55:45;38.37;;;18.70;;
15716;SDS011;7960;50.908;4.204;2022-12-05T09:58:21;38.73;;;18.37;;
15716;SDS011;7960;50.908;4.204;2022-12-05T10:00:53;35.30;;;19.03;;
15716;SDS011;7960;50.908;4.204;2022-12-05T10:03:28;31.60;;;17.90;;
15716;SDS011;7960;50.908;4.204;2022-12-05T10:06:09;34.70;;;18.20;;
15716;SDS011;7960;50.908;4.204;2022-12-05T10:08:44;35.80;;;18.43;;
15716;SDS011;7960;50.908;4.204;2022-12-05T10:11:32;32.53;;;18.07;;
15716;SDS011;7960;50.908;4.204;2022-12-05T10:14:04;36.17;;;18.83;;
15716;SDS011;7960;50.908;4.204;2022-12-05T10:16:36;33.73;;;17.83;;
15716;SDS011;7960;50.908;4.204;2022-12-05T10:19:09;32.07;;;18.47;;
15716;SDS011;7960;50.908;4.204;2022-12-05T10:21:41;31.43;;;17.47;;
15716;SDS011;7960;50.908;4.204;2022-12-05T10:24:16;35.10;;;18.73;;
15716;SDS011;7960;50.908;4.204;2022-12-05T10:26:47;30.07;;;17.23;;
15716;SDS011;7960;50.908;4.204;2022-12-05T10:29:22;31.70;;;17.93;;
15716;SDS011;7960;50.908;4.204;2022-12-05T10:31:55;36.13;;;19.50;;
15716;SDS011;7960;50.908;4.204;2022-12-05T10:34:30;33.33;;;17.40;;
15716;SDS011;7960;50.908;4.204;2022-12-05T10:37:00;34.13;;;18.73;;
15716;SDS011;7960;50.908;4.204;2022-12-05T10:39:36;37.03;;;18.83;;
15716;SDS011;7960;50.908;4.204;2022-12-05T10:42:03;31.63;;;17.47;;
15716;SDS011;7960;50.908;4.204;2022-12-05T10:44:30;29.67;;;17.63;;
15716;SDS011;7960;50.908;4.204;2022-12-05T10:46:58;28.10;;;17.10;;
15716;SDS011;7960;50.908;4.204;2022-12-05T10:49:25;31.77;;;16.90;;
15716;SDS011;7960;50.908;4.204;2022-12-05T10:51:53;33.03;;;18.23;;
15716;SDS011;7960;50.908;4.204;2022-12-05T10:54:21;31.20;;;17.90;;
15716;SDS011;7960;50.908;4.204;2022-12-05T10:56:52;31.10;;;18.77;;
15716;SDS011;7960;50.908;4.204;2022-12-05T10:59:20;32.90;;;17.87;;
15716;SDS011;7960;50.908;4.204;2022-12-05T11:01:50;36.57;;;20.43;;
15716;SDS011;7960;50.908;4.204;2022-12-05T11:04:19;31.80;;;18.77;;
15716;SDS011;7960;50.908;4.204;2022-12-05T11:06:53;33.77;;;18.90;;
15716;SDS011;7960;50.908;4.204;2022-12-05T11:09:23;34.73;;;19.40;;
15716;SDS011;7960;50.908;4.204;2022-12-05T11:14:55;28.13;;;16.97;;
15716;SDS011;7960;50.908;4.204;2022-12-05T11:17:29;31.50;;;18.93;;
15716;SDS011;7960;50.908;4.204;2022-12-05T11:19:59;32.07;;;18.67;;
15716;SDS011;7960;50.908;4.204;2022-12-05T11:22:30;31.53;;;18.33;;
15716;SDS011;7960;50.908;4.204;2022-12-05T11:25:00;32.60;;;18.80;;
15716;SDS011;7960;50.908;4.204;2022-12-05T11:27:52;34.00;;;19.20;;
15716;SDS011;7960;50.908;4.204;2022-12-05T11:30:20;31.83;;;18.47;;
15716;SDS011;7960;50.908;4.204;2022-12-05T11:32:51;34.30;;;19.00;;
15716;SDS011;7960;50.908;4.204;2022-12-05T11:35:37;30.33;;;17.23;;
15716;SDS011;7960;50.908;4.204;2022-12-05T11:38:05;30.40;;;17.53;;
15716;SDS011;7960;50.908;4.204;2022-12-05T11:40:33;28.30;;;17.70;;
15716;SDS011;7960;50.908;4.204;2022-12-05T11:43:11;30.23;;;17.67;;
15716;SDS011;7960;50.908;4.204;2022-12-05T11:46:01;27.17;;;16.47;;
15716;SDS011;7960;50.908;4.204;2022-12-05T11:48:43;34.03;;;18.83;;
15716;SDS011;7960;50.908;4.204;2022-12-05T11:51:23;26.57;;;16.70;;
15716;SDS011;7960;50.908;4.204;2022-12-05T11:57:01;28.23;;;17.60;;
15716;SDS011;7960;50.908;4.204;2022-12-05T11:59:56;30.63;;;18.00;;
15716;SDS011;7960;50.908;4.204;2022-12-05T12:02:40;27.07;;;17.00;;
15716;SDS011;7960;50.908;4.204;2022-12-05T12:05:20;26.87;;;16.03;;
15716;SDS011;7960;50.908;4.204;2022-12-05T12:07:57;28.20;;;17.30;;
15716;SDS011;7960;50.908;4.204;2022-12-05T12:10:32;30.47;;;18.00;;
15716;SDS011;7960;50.908;4.204;2022-12-05T12:13:13;32.23;;;18.53;;
15716;SDS011;7960;50.908;4.204;2022-12-05T12:15:59;26.90;;;17.30;;
15716;SDS011;7960;50.908;4.204;2022-12-05T12:18:41;32.27;;;18.97;;
15716;SDS011;7960;50.908;4.204;2022-12-05T12:21:22;29.67;;;17.97;;
15716;SDS011;7960;50.908;4.204;2022-12-05T12:24:05;31.70;;;19.47;;
15716;SDS011;7960;50.908;4.204;2022-12-05T12:26:43;27.47;;;16.83;;
15716;SDS011;7960;50.908;4.204;2022-12-05T12:29:19;27.00;;;17.33;;
15716;SDS011;7960;50.908;4.204;2022-12-05T12:32:00;29.77;;;18.30;;
15716;SDS011;7960;50.908;4.204;2022-12-05T12:34:45;27.53;;;17.07;;
15716;SDS011;7960;50.908;4.204;2022-12-05T12:37:30;31.07;;;18.47;;
15716;SDS011;7960;50.908;4.204;2022-12-05T12:40:11;29.90;;;18.27;;
15716;SDS011;7960;50.908;4.204;2022-12-05T12:42:42;28.73;;;17.27;;
15716;SDS011;7960;50.908;4.204;2022-12-05T12:45:21;27.17;;;16.77;;
15716;SDS011;7960;50.908;4.204;2022-12-05T12:48:08;34.47;;;19.43;;
15716;SDS011;7960;50.908;4.204;2022-12-05T12:50:45;29.97;;;17.60;;
15716;SDS011;7960;50.908;4.204;2022-12-05T12:53:26;28.67;;;18.60;;
15716;SDS011;7960;50.908;4.204;2022-12-05T12:56:10;30.10;;;18.77;;
15716;SDS011;7960;50.908;4.204;2022-12-05T12:58:49;31.57;;;18.37;;
15716;SDS011;7960;50.908;4.204;2022-12-05T13:01:23;31.07;;;18.33;;
15716;SDS011;7960;50.908;4.204;2022-12-05T13:04:01;29.83;;;18.23;;
15716;SDS011;7960;50.908;4.204;2022-12-05T13:06:37;28.27;;;18.03;;
15716;SDS011;7960;50.908;4.204;2022-12-05T13:09:10;27.87;;;17.53;;
15716;SDS011;7960;50.908;4.204;2022-12-05T13:11:41;27.93;;;17.37;;
15716;SDS011;7960;50.908;4.204;2022-12-05T13:14:12;30.60;;;17.43;;
15716;SDS011;7960;50.908;4.204;2022-12-05T13:16:43;26.17;;;17.00;;
15716;SDS011;7960;50.908;4.204;2022-12-05T13:19:19;30.80;;;17.77;;
15716;SDS011;7960;50.908;4.204;2022-12-05T13:21:51;29.63;;;17.70;;
15716;SDS011;7960;50.908;4.204;2022-12-05T13:24:19;28.07;;;17.33;;
15716;SDS011;7960;50.908;4.204;2022-12-05T13:26:51;29.60;;;17.23;;
15716;SDS011;7960;50.908;4.204;2022-12-05T13:29:18;30.17;;;17.67;;
15716;SDS011;7960;50.908;4.204;2022-12-05T13:31:49;29.40;;;17.83;;
15716;SDS011;7960;50.908;4.204;2022-12-05T13:37:10;30.93;;;18.60;;
15716;SDS011;7960;50.908;4.204;2022-12-05T13:40:18;30.50;;;18.20;;
15716;SDS011;7960;50.908;4.204;2022-12-05T13:43:06;34.20;;;17.43;;
15716;SDS011;7960;50.908;4.204;2022-12-05T13:45:34;30.13;;;18.20;;
15716;SDS011;7960;50.908;4.204;2022-12-05T13:48:05;30.27;;;17.80;;
15716;SDS011;7960;50.908;4.204;2022-12-05T13:50:46;28.97;;;17.57;;
15716;SDS011;7960;50.908;4.204;2022-12-05T13:56:22;30.97;;;18.93;;
15716;SDS011;7960;50.908;4.204;2022-12-05T13:58:52;27.87;;;17.40;;
15716;SDS011;7960;50.908;4.204;2022-12-05T14:07:13;31.23;;;19.00;;
15716;SDS011;7960;50.908;4.204;2022-12-05T14:10:05;32.30;;;19.87;;
15716;SDS011;7960;50.908;4.204;2022-12-05T14:12:52;33.10;;;18.97;;
15716;SDS011;7960;50.908;4.204;2022-12-05T14:15:33;30.50;;;19.20;;
15716;SDS011;7960;50.908;4.204;2022-12-05T14:18:08;35.20;;;19.57;;
15716;SDS011;7960;50.908;4.204;2022-12-05T14:20:52;31.17;;;19.23;;
15716;SDS011;7960;50.908;4.204;2022-12-05T14:23:33;32.97;;;18.50;;
15716;SDS011;7960;50.908;4.204;2022-12-05T14:29:12;40.07;;;22.33;;
15716;SDS011;7960;50.908;4.204;2022-12-05T14:32:01;40.10;;;21.83;;
15716;SDS011;7960;50.908;4.204;2022-12-05T14:34:34;39.00;;;22.30;;
15716;SDS011;7960;50.908;4.204;2022-12-05T14:37:05;38.73;;;21.33;;
15716;SDS011;7960;50.908;4.204;2022-12-05T14:39:47;42.37;;;22.83;;
15716;SDS011;7960;50.908;4.204;2022-12-05T14:42:20;36.83;;;21.17;;
15716;SDS011;7960;50.908;4.204;2022-12-05T14:44:51;42.97;;;22.77;;
15716;SDS011;7960;50.908;4.204;2022-12-05T14:47:21;41.53;;;23.43;;
15716;SDS011;7960;50.908;4.204;2022-12-05T14:49:52;44.27;;;24.83;;
15716;SDS011;7960;50.908;4.204;2022-12-05T14:52:23;49.03;;;26.70;;
15716;SDS011;7960;50.908;4.204;2022-12-05T14:54:53;45.60;;;25.37;;
15716;SDS011;7960;50.908;4.204;2022-12-05T14:57:25;45.73;;;23.77;;
15716;SDS011;7960;50.908;4.204;2022-12-05T14:59:54;46.30;;;25.00;;
15716;SDS011;7960;50.908;4.204;2022-12-05T15:02:23;43.43;;;23.60;;
15716;SDS011;7960;50.908;4.204;2022-12-05T15:04:54;47.87;;;24.60;;
15716;SDS011;7960;50.908;4.204;2022-12-05T15:07:28;46.17;;;24.77;;
15716;SDS011;7960;50.908;4.204;2022-12-05T15:10:00;39.93;;;23.63;;
15716;SDS011;7960;50.908;4.204;2022-12-05T15:12:31;44.40;;;25.20;;
15716;SDS011;7960;50.908;4.204;2022-12-05T15:15:06;44.47;;;24.90;;
15716;SDS011;7960;50.908;4.204;2022-12-05T15:17:41;54.23;;;27.00;;
15716;SDS011;7960;50.908;4.204;2022-12-05T15:20:16;43.03;;;23.43;;
15716;SDS011;7960;50.908;4.204;2022-12-05T15:22:47;38.93;;;22.53;;